Time;durP1;ratioP1;P1;durP2;ratioP2;P2;SDS_P1;SDS_P2;PMS_P1;PMS_P2;Temp;Humidity;BMP_temperature;BMP_pressure;BME280_temperature;BME280_humidity;BME280_pressure;Samples;Min_cycle;Max_cycle;Signal;HPM_P1;HPM_P2
2022/09/24 00:01:20;;;;;;;;;;;;;;;9.33;94.10;98749.00;5044989;28;20540;-71
2022/09/24 00:03:49;;;;;;;0.10;0.10;;;;;;;9.36;93.88;98744.84;5044335;28;20370;-70
2022/09/24 00:06:20;;;;;;;0.10;0.10;;;;;;;9.38;93.62;98729.03;5045971;28;20504;-70
2022/09/24 00:08:48;;;;;;;0.03;0.03;;;;;;;9.34;93.48;98723.34;5044529;28;20164;-70
2022/09/24 00:11:17;;;;;;;0.10;0.10;;;;;;;9.38;93.55;98720.84;5044664;28;20273;-70
2022/09/24 00:13:43;;;;;;;0.10;0.10;;;;;;;9.38;93.50;98700.91;5045591;28;20134;-69
2022/09/24 00:16:11;;;;;;;0.32;0.10;;;;;;;9.40;93.52;98698.69;5042269;28;20052;-70
2022/09/24 00:18:38;;;;;;;0.32;0.10;;;;;;;9.38;93.11;98690.81;5045859;28;20419;-69
2022/09/24 00:21:11;;;;;;;0.10;0.10;;;;;;;9.39;93.11;98689.72;5045565;28;20049;-70
2022/09/24 00:23:39;;;;;;;0.10;0.10;;;;;;;9.43;93.03;98681.72;5057043;28;20075;-70
2022/09/24 00:28:50;;;;;;;0.10;0.10;;;;;;;9.45;92.50;98661.25;5066827;28;19967;-70
2022/09/24 00:31:17;;;;;;;0.10;0.10;;;;;;;9.44;92.24;98672.44;5063780;28;20045;-71
2022/09/24 00:33:43;;;;;;;0.10;0.10;;;;;;;9.44;92.04;98656.06;5063861;28;20052;-69
2022/09/24 00:36:09;;;;;;;0.10;0.10;;;;;;;9.44;91.91;98656.06;5066078;28;20041;-69
2022/09/24 00:38:35;;;;;;;0.10;0.10;;;;;;;9.41;92.23;98646.59;5066212;28;20535;-70
2022/09/24 00:41:03;;;;;;;0.10;0.10;;;;;;;9.43;91.98;98633.44;5065451;28;20036;-70
2022/09/24 00:43:33;;;;;;;0.10;0.10;;;;;;;9.44;91.81;98620.59;5064393;28;20461;-70
2022/09/24 00:46:11;;;;;;;0.10;0.10;;;;;;;9.38;92.01;98611.72;5065801;28;20051;-71
2022/09/24 00:48:39;;;;;;;0.13;0.10;;;;;;;9.45;92.02;98611.34;5064825;28;20065;-70
2022/09/24 00:51:06;;;;;;;0.10;0.10;;;;;;;9.44;92.04;98601.50;5030889;28;20044;-69
2022/09/24 00:53:33;;;;;;;;;;;;;;;9.43;91.96;98603.44;5061960;28;20044;-71
2022/09/24 00:56:04;;;;;;;0.10;0.10;;;;;;;9.42;92.15;98601.81;5063368;28;19931;-70
2022/09/24 00:58:30;;;;;;;0.10;0.10;;;;;;;9.43;92.18;98591.69;5063204;28;20052;-69
2022/09/24 01:01:00;;;;;;;0.10;0.10;;;;;;;9.41;92.56;98589.28;5032194;28;20538;-70
2022/09/24 01:03:27;;;;;;;0.10;0.10;;;;;;;9.34;92.63;98561.56;5064923;28;20080;-67
2022/09/24 01:05:55;;;;;;;0.10;0.10;;;;;;;9.24;92.85;98554.34;5061549;28;20044;-69
2022/09/24 01:08:21;;;;;;;0.10;0.10;;;;;;;9.35;92.77;98568.63;5064569;28;20054;-69
2022/09/24 01:11:11;;;;;;;0.10;0.10;;;;;;;9.37;92.84;98563.72;5066650;28;20037;-70
2022/09/24 01:14:01;;;;;;;0.10;0.10;;;;;;;9.34;93.23;98558.84;5062686;28;20055;-70
2022/09/24 01:16:36;;;;;;;0.00;0.00;;;;;;;9.34;93.34;98553.38;5059725;28;20298;-69
2022/09/24 01:19:17;;;;;;;0.10;0.10;;;;;;;9.32;93.06;98537.31;5060791;28;20048;-68
2022/09/24 01:21:48;;;;;;;0.10;0.10;;;;;;;9.34;93.08;98539.75;5065847;28;20045;-70
2022/09/24 01:24:39;;;;;;;0.10;0.10;;;;;;;9.34;92.86;98539.75;5063887;28;20060;-70
2022/09/24 01:27:13;;;;;;;0.10;0.10;;;;;;;9.22;92.62;98524.66;5061530;28;20044;-69
2022/09/24 01:29:50;;;;;;;0.10;0.10;;;;;;;9.33;92.56;98535.38;5064089;28;20052;-68
2022/09/24 01:32:24;;;;;;;0.10;0.10;;;;;;;9.30;92.78;98531.34;5062533;28;20056;-69
2022/09/24 01:34:57;;;;;;;0.10;0.10;;;;;;;9.34;92.88;98526.91;5062629;28;20522;-69
2022/09/24 01:37:27;;;;;;;0.10;0.10;;;;;;;9.32;93.03;98526.41;5059777;28;20436;-68
2022/09/24 01:39:55;;;;;;;0.10;0.10;;;;;;;9.29;92.72;98526.19;5062579;28;20450;-69
2022/09/24 01:42:24;;;;;;;0.10;0.10;;;;;;;9.28;93.09;98514.47;5064786;28;20045;-69
2022/09/24 01:44:53;;;;;;;0.10;0.10;;;;;;;9.27;93.67;98514.78;5062723;28;20045;-69
2022/09/24 01:47:28;;;;;;;0.10;0.10;;;;;;;9.27;93.54;98510.09;5064776;28;20223;-70
2022/09/24 01:49:54;;;;;;;0.10;0.10;;;;;;;9.26;93.60;98499.50;5062407;28;20044;-69
2022/09/24 01:52:26;;;;;;;0.10;0.10;;;;;;;9.26;93.66;98496.78;5064009;28;20040;-68
2022/09/24 01:54:56;;;;;;;0.10;0.10;;;;;;;9.24;93.87;98480.72;5064796;28;20529;-69
2022/09/24 01:57:24;;;;;;;0.10;0.10;;;;;;;9.20;94.14;98477.75;5061461;28;20441;-69
2022/09/24 01:59:56;;;;;;;0.10;0.10;;;;;;;9.17;94.25;98478.34;5061956;28;20134;-68
2022/09/24 02:02:27;;;;;;;0.10;0.10;;;;;;;9.14;94.41;98472.72;5062422;28;20139;-68
2022/09/24 02:05:00;;;;;;;0.10;0.10;;;;;;;9.15;94.24;98466.16;5061518;28;20044;-70
2022/09/24 02:07:32;;;;;;;0.10;0.10;;;;;;;9.14;94.15;98462.59;5062214;28;20044;-68
2022/09/24 02:09:58;;;;;;;0.00;0.00;;;;;;;9.14;94.19;98459.09;5056423;28;20075;-69
2022/09/24 02:12:31;;;;;;;0.10;0.10;;;;;;;9.12;93.99;98467.53;5042640;28;20512;-70
2022/09/24 02:15:05;;;;;;;0.10;0.10;;;;;;;9.14;94.09;98459.88;5044447;28;20053;-70
2022/09/24 02:17:35;;;;;;;0.10;0.10;;;;;;;9.14;94.32;98465.34;5042729;28;20052;-67
2022/09/24 02:20:06;;;;;;;0.10;0.10;;;;;;;9.12;94.33;98447.63;5043886;28;20033;-70
2022/09/24 02:22:32;;;;;;;0.10;0.10;;;;;;;9.20;94.46;98450.50;5043638;28;20080;-68
2022/09/24 02:25:03;;;;;;;0.10;0.10;;;;;;;9.15;94.38;98445.13;5048326;28;20057;-68
2022/09/24 02:27:29;;;;;;;0.10;0.10;;;;;;;9.15;94.24;98434.22;5047273;28;20127;-69
2022/09/24 02:29:57;;;;;;;0.10;0.10;;;;;;;9.14;94.08;98440.78;5046968;28;20045;-70
2022/09/24 02:32:26;;;;;;;0.10;0.10;;;;;;;9.16;93.98;98432.31;5048627;28;20061;-70
2022/09/24 02:34:56;;;;;;;0.10;0.10;;;;;;;9.15;94.06;98430.69;5047742;28;20134;-70
2022/09/24 02:37:23;;;;;;;0.10;0.10;;;;;;;9.14;93.88;98426.34;5045995;28;20045;-70
2022/09/24 02:39:50;;;;;;;0.10;0.10;;;;;;;9.11;94.03;98425.03;5026526;28;20076;-68
2022/09/24 02:42:18;;;;;;;0.10;0.10;;;;;;;9.11;94.50;98419.56;5048956;28;20053;-70
2022/09/24 02:44:45;;;;;;;0.10;0.10;;;;;;;9.12;94.73;98415.75;5047554;28;20094;-69
2022/09/24 02:47:11;;;;;;;0.10;0.10;;;;;;;9.12;94.98;98412.19;5045858;28;20084;-70
2022/09/24 02:49:38;;;;;;;0.10;0.10;;;;;;;9.05;95.30;98405.22;5046045;28;20080;-69
2022/09/24 02:52:04;;;;;;;0.10;0.10;;;;;;;9.02;95.40;98403.09;5051668;28;20064;-68
2022/09/24 02:54:30;;;;;;;0.05;0.05;;;;;;;8.96;95.48;98406.19;5048464;28;20476;-70
2022/09/24 02:56:56;;;;;;;0.10;0.10;;;;;;;8.93;95.83;98397.50;5050773;28;20041;-69
2022/09/24 02:59:22;;;;;;;0.10;0.10;;;;;;;8.94;96.16;98401.03;5067931;28;20040;-69
2022/09/24 03:01:49;;;;;;;0.10;0.10;;;;;;;8.92;96.03;98403.25;5069870;28;20053;-69
2022/09/24 03:04:15;;;;;;;0.10;0.10;;;;;;;8.89;96.33;98391.03;5066233;28;20064;-69
2022/09/24 03:06:42;;;;;;;0.10;0.10;;;;;;;8.86;96.71;98396.28;5067533;28;20139;-67
2022/09/24 03:09:10;;;;;;;0.10;0.10;;;;;;;8.83;96.88;98402.31;5066952;28;20430;-69
2022/09/24 03:11:37;;;;;;;0.10;0.10;;;;;;;8.83;97.29;98403.13;5067890;28;20048;-69
2022/09/24 03:14:03;;;;;;;0.10;0.10;;;;;;;8.83;97.62;98399.59;5062540;28;20595;-69
2022/09/24 03:16:29;;;;;;;0.10;0.10;;;;;;;8.86;97.80;98397.06;5068896;28;20110;-70
2022/09/24 03:18:55;;;;;;;0.10;0.10;;;;;;;8.88;98.24;98411.22;5065008;28;20448;-68
2022/09/24 03:21:22;;;;;;;0.10;0.10;;;;;;;8.85;98.32;98402.84;5066687;28;20048;-69
2022/09/24 03:23:50;;;;;;;0.10;0.10;;;;;;;8.85;98.90;98403.63;5064721;28;20516;-69
2022/09/24 03:26:16;;;;;;;0.10;0.10;;;;;;;8.84;99.08;98404.75;5065745;28;20118;-69
2022/09/24 03:28:43;;;;;;;0.10;0.10;;;;;;;8.76;99.22;98395.31;5062625;28;20484;-70
2022/09/24 03:31:09;;;;;;;0.10;0.10;;;;;;;8.70;99.38;98387.53;5065292;28;20139;-69
2022/09/24 03:33:38;;;;;;;0.10;0.10;;;;;;;8.62;99.57;98387.09;5048468;28;20299;-70
2022/09/24 03:36:06;;;;;;;0.10;0.10;;;;;;;8.53;99.73;98375.25;5065171;28;20095;-70
2022/09/24 03:38:34;;;;;;;0.10;0.10;;;;;;;8.55;99.99;98389.38;5064523;28;20114;-69
2022/09/24 03:41:02;;;;;;;0.10;0.10;;;;;;;8.52;99.90;98387.25;5064786;28;20059;-69
2022/09/24 03:43:28;;;;;;;0.10;0.10;;;;;;;8.49;100.00;98366.81;5065559;28;20438;-69
2022/09/24 03:45:54;;;;;;;0.10;0.10;;;;;;;8.51;100.00;98370.13;5063807;28;20143;-69
2022/09/24 03:48:22;;;;;;;0.00;0.00;;;;;;;8.54;100.00;98365.97;5064111;28;20139;-68
2022/09/24 03:50:48;;;;;;;;;;;;;;;8.57;100.00;98351.75;5030870;28;20051;-69
2022/09/24 03:53:15;;;;;;;0.00;0.00;;;;;;;8.57;100.00;98354.47;5064711;28;19924;-69
2022/09/24 03:55:45;;;;;;;0.10;0.10;;;;;;;8.54;100.00;98341.44;5065289;28;20126;-69
2022/09/24 03:58:13;;;;;;;0.00;0.00;;;;;;;8.53;100.00;98337.09;5063022;28;20083;-69
2022/09/24 04:00:40;;;;;;;0.10;0.10;;;;;;;8.50;100.00;98334.97;5063546;28;20044;-70
2022/09/24 04:03:06;;;;;;;0.10;0.10;;;;;;;8.50;100.00;98340.44;5063046;28;20080;-68
2022/09/24 04:05:33;;;;;;;0.03;0.03;;;;;;;8.42;99.76;98328.25;5062188;28;20143;-69
2022/09/24 04:07:59;;;;;;;0.10;0.10;;;;;;;8.42;99.49;98325.53;5062741;28;20396;-68
2022/09/24 04:10:25;;;;;;;0.10;0.10;;;;;;;8.42;99.25;98317.38;5046663;28;20495;-69
2022/09/24 04:12:51;;;;;;;0.10;0.10;;;;;;;8.45;98.88;98324.94;5041835;28;20049;-69
2022/09/24 04:15:20;;;;;;;0.10;0.10;;;;;;;8.47;98.63;98306.38;5043051;28;20141;-69
2022/09/24 04:17:49;;;;;;;0.10;0.10;;;;;;;8.49;98.33;98306.09;5040627;28;20036;-67
2022/09/24 04:20:15;;;;;;;0.10;0.10;;;;;;;8.47;98.14;98302.88;5045816;28;20043;-68
2022/09/24 04:22:41;;;;;;;0.10;0.10;;;;;;;8.46;98.06;98299.31;5041490;28;20043;-68
2022/09/24 04:25:07;;;;;;;0.10;0.10;;;;;;;8.45;98.33;98288.75;5023319;28;20148;-68
2022/09/24 04:27:35;;;;;;;0.10;0.10;;;;;;;8.46;97.94;98288.44;5045707;28;20040;-68
2022/09/24 04:30:01;;;;;;;0.10;0.10;;;;;;;8.46;97.83;98279.47;5043378;28;20059;-69
2022/09/24 04:32:28;;;;;;;0.00;0.00;;;;;;;8.49;97.79;98282.38;5034998;28;20041;-69
2022/09/24 04:34:54;;;;;;;0.10;0.10;;;;;;;8.54;97.53;98267.09;5041720;28;20427;-69
2022/09/24 04:37:20;;;;;;;0.10;0.10;;;;;;;8.58;97.07;98257.22;5041454;28;20047;-69
2022/09/24 04:39:46;;;;;;;0.10;0.10;;;;;;;8.60;96.52;98269.44;5043292;28;20053;-69
2022/09/24 04:42:16;;;;;;;0.10;0.10;;;;;;;8.63;96.45;98266.13;5039852;28;20045;-69
2022/09/24 04:44:46;;;;;;;0.10;0.10;;;;;;;8.64;96.21;98256.00;5040646;28;20063;-69
2022/09/24 04:47:12;;;;;;;0.10;0.10;;;;;;;8.64;96.22;98245.94;5042051;28;20061;-69
2022/09/24 04:49:39;;;;;;;0.03;0.03;;;;;;;8.69;96.55;98252.38;5044693;28;20044;-69
2022/09/24 04:52:05;;;;;;;0.10;0.10;;;;;;;8.65;96.52;98233.91;5041404;28;20037;-69
2022/09/24 04:54:31;;;;;;;0.17;0.10;;;;;;;8.61;96.71;98235.63;5042497;28;20044;-69
2022/09/24 04:56:57;;;;;;;0.10;0.10;;;;;;;8.58;97.15;98229.97;5041800;28;20463;-70
2022/09/24 04:59:23;;;;;;;0.00;0.00;;;;;;;8.52;97.00;98221.09;5040559;28;20045;-69
2022/09/24 05:01:49;;;;;;;0.10;0.10;;;;;;;8.48;96.91;98220.84;5043428;28;20132;-70
2022/09/24 05:04:15;;;;;;;0.10;0.10;;;;;;;8.50;96.90;98215.91;5042353;28;20451;-70
2022/09/24 05:06:43;;;;;;;0.10;0.10;;;;;;;8.51;97.02;98211.28;5041440;28;20559;-70
2022/09/24 05:09:09;;;;;;;0.10;0.10;;;;;;;8.50;96.92;98202.31;5041967;28;20562;-68
2022/09/24 05:11:35;;;;;;;0.10;0.10;;;;;;;8.47;96.75;98200.16;5042990;28;20044;-69
2022/09/24 05:14:01;;;;;;;0.10;0.10;;;;;;;8.45;96.64;98196.91;5025640;28;20056;-70
2022/09/24 05:16:27;;;;;;;0.10;0.10;;;;;;;8.45;96.73;98186.03;5038951;28;20045;-69
2022/09/24 05:18:53;;;;;;;0.00;0.00;;;;;;;8.43;96.54;98185.53;5042213;28;20143;-70
2022/09/24 05:21:20;;;;;;;0.10;0.10;;;;;;;8.40;96.54;98174.41;5043607;28;20045;-69
2022/09/24 05:23:47;;;;;;;0.10;0.10;;;;;;;8.42;96.28;98167.56;5040433;28;20052;-69
2022/09/24 05:28:58;;;;;;;0.10;0.10;;;;;;;8.43;95.99;98154.75;5039135;28;20041;-69
2022/09/24 05:31:24;;;;;;;0.10;0.10;;;;;;;8.43;95.76;98147.41;5038698;28;20045;-69
2022/09/24 05:33:50;;;;;;;0.10;0.10;;;;;;;8.47;95.51;98144.88;5041330;28;20463;-68
2022/09/24 05:36:17;;;;;;;0.10;0.10;;;;;;;8.49;95.47;98137.22;5039613;28;20149;-69
2022/09/24 05:38:43;;;;;;;0.17;0.10;;;;;;;8.51;95.10;98140.47;5040754;28;20057;-69
2022/09/24 05:41:10;;;;;;;0.10;0.10;;;;;;;8.50;94.36;98130.69;5043051;28;20052;-69
2022/09/24 05:43:36;;;;;;;0.10;0.10;;;;;;;8.50;94.12;98127.97;5043252;28;20095;-70
2022/09/24 05:46:02;;;;;;;0.10;0.10;;;;;;;8.54;93.98;98131.69;5041312;28;20041;-70
2022/09/24 05:48:28;;;;;;;0.10;0.10;;;;;;;8.55;93.42;98125.13;5040357;28;20064;-69
2022/09/24 05:50:55;;;;;;;0.10;0.10;;;;;;;8.56;93.38;98121.28;5042404;28;20080;-69
2022/09/24 05:53:22;;;;;;;0.10;0.10;;;;;;;8.59;93.38;98114.44;5042789;28;20045;-69
2022/09/24 05:55:48;;;;;;;0.10;0.10;;;;;;;8.56;92.99;98113.13;5039592;28;20049;-68
2022/09/24 05:58:15;;;;;;;0.10;0.10;;;;;;;8.56;93.15;98113.13;5038430;28;20123;-69
2022/09/24 06:00:41;;;;;;;0.10;0.10;;;;;;;8.58;93.11;98121.00;5045669;28;20041;-69
2022/09/24 06:03:11;;;;;;;0.10;0.10;;;;;;;8.53;93.52;98102.84;5044675;28;20055;-69
2022/09/24 06:05:37;;;;;;;0.10;0.10;;;;;;;8.53;93.99;98115.66;5049959;28;20069;-70
2022/09/24 06:08:04;;;;;;;0.00;0.00;;;;;;;8.53;94.25;98107.50;5027354;28;20079;-68
2022/09/24 06:10:30;;;;;;;0.33;0.20;;;;;;;8.53;95.02;98100.13;5021679;28;20488;-69
2022/09/24 06:12:56;;;;;;;0.00;0.00;;;;;;;8.51;95.13;98102.34;5043616;28;20057;-70
2022/09/24 06:15:25;;;;;;;0.10;0.10;;;;;;;8.33;95.71;98076.78;5040613;28;20098;-69
2022/09/24 06:17:52;;;;;;;0.10;0.10;;;;;;;8.44;96.35;98094.53;5044481;28;20052;-70
2022/09/24 06:20:18;;;;;;;;;;;;;;;8.41;96.60;98092.41;5047405;28;20215;-70
2022/09/24 06:22:45;;;;;;;0.10;0.10;;;;;;;8.36;96.95;98090.59;5024248;28;20297;-69
2022/09/24 06:25:11;;;;;;;0.25;0.10;;;;;;;8.33;97.38;98093.94;5049043;28;20053;-69
2022/09/24 06:27:37;;;;;;;0.10;0.10;;;;;;;8.36;97.66;98087.88;5041314;28;20044;-69
2022/09/24 06:30:04;;;;;;;0.10;0.10;;;;;;;8.31;97.86;98081.72;5052515;28;20045;-69
2022/09/24 06:32:31;;;;;;;0.10;0.10;;;;;;;8.34;97.97;98081.09;5055130;28;20048;-69
2022/09/24 06:34:57;;;;;;;0.57;0.20;;;;;;;8.33;97.69;98088.47;5065223;28;20053;-70
2022/09/24 06:37:23;;;;;;;0.10;0.10;;;;;;;8.32;97.80;98081.41;5064275;28;20778;-69
2022/09/24 06:39:49;;;;;;;0.10;0.10;;;;;;;8.31;97.87;98081.72;5069233;28;20181;-69
2022/09/24 06:42:15;;;;;;;0.00;0.00;;;;;;;8.30;97.87;98083.66;5030868;28;20048;-69
2022/09/24 06:44:41;;;;;;;0.10;0.10;;;;;;;8.28;97.93;98076.88;5055554;28;20040;-70
2022/09/24 06:47:07;;;;;;;0.10;0.10;;;;;;;8.27;97.86;98088.88;5064445;28;20048;-69
2022/09/24 06:49:34;;;;;;;0.10;0.10;;;;;;;8.31;97.85;98076.25;5061057;28;20078;-69
2022/09/24 06:52:01;;;;;;;0.10;0.10;;;;;;;8.30;97.78;98077.38;5037849;28;20049;-69
2022/09/24 06:54:27;;;;;;;0.10;0.10;;;;;;;8.35;97.91;98074.53;5030273;28;20061;-69
2022/09/24 06:56:53;;;;;;;0.00;0.00;;;;;;;8.33;97.70;98074.88;5044110;28;20072;-69
2022/09/24 06:59:19;;;;;;;0.10;0.10;;;;;;;8.31;97.79;98065.38;5053100;28;20036;-69
2022/09/24 07:01:45;;;;;;;0.10;0.10;;;;;;;8.31;97.63;98066.19;5052443;28;20037;-69
2022/09/24 07:04:11;;;;;;;0.10;0.10;;;;;;;8.32;97.50;98058.81;5051010;28;20129;-69
2022/09/24 07:07:40;;;;;;;0.10;0.10;;;;;;;8.34;97.57;98064.75;5036682;28;20133;-69
2022/09/24 07:09:35;;;;;;;0.10;0.10;;;;;;;8.35;97.65;98053.56;5020860;28;20578;-69
2022/09/24 07:12:04;;;;;;;0.05;0.05;;;;;;;8.33;97.72;98055.81;5026383;28;20497;-69
2022/09/24 07:14:30;;;;;;;0.08;0.08;;;;;;;8.37;97.81;98054.09;5040976;28;20053;-70
2022/09/24 07:16:59;;;;;;;0.10;0.10;;;;;;;8.36;97.89;98043.50;5044343;28;20635;-69
2022/09/24 07:19:25;;;;;;;0.10;0.10;;;;;;;8.39;97.86;98042.91;5044178;28;20242;-70
2022/09/24 07:21:52;;;;;;;0.00;0.00;;;;;;;8.24;97.71;98027.66;5045682;28;20052;-69
2022/09/24 07:24:18;;;;;;;0.10;0.10;;;;;;;8.36;97.73;98032.63;5049810;28;20126;-69
2022/09/24 07:26:44;;;;;;;0.10;0.10;;;;;;;8.32;97.68;98037.03;5043740;28;20525;-69
2022/09/24 07:29:10;;;;;;;0.10;0.10;;;;;;;8.27;97.39;98037.94;5045503;28;20169;-69
2022/09/24 07:31:36;;;;;;;0.10;0.10;;;;;;;8.27;97.64;98037.94;5044629;28;20566;-69
2022/09/24 07:34:02;;;;;;;0.10;0.10;;;;;;;8.26;97.62;98032.81;5043452;28;20048;-70
2022/09/24 07:36:31;;;;;;;0.10;0.10;;;;;;;8.25;97.32;98025.75;5044668;28;20057;-70
2022/09/24 07:39:00;;;;;;;0.30;0.10;;;;;;;8.29;97.67;98024.03;5047183;28;20049;-70
2022/09/24 07:41:26;;;;;;;0.10;0.10;;;;;;;8.35;97.60;98022.81;5044974;28;20053;-70
2022/09/24 07:43:54;;;;;;;0.00;0.00;;;;;;;8.39;97.60;98026.56;5046076;28;20069;-69
2022/09/24 07:46:21;;;;;;;0.10;0.10;;;;;;;8.35;97.77;98014.63;5041137;28;20052;-70
2022/09/24 07:48:50;;;;;;;0.00;0.00;;;;;;;8.31;97.89;98008.19;4700486;28;10000322;-70
2022/09/24 07:51:16;;;;;;;0.10;0.10;;;;;;;8.30;98.10;98015.56;5055002;28;20060;-70
2022/09/24 07:53:42;;;;;;;0.10;0.10;;;;;;;8.27;98.20;98012.63;5061336;28;20052;-69
2022/09/24 07:56:09;;;;;;;0.10;0.10;;;;;;;8.28;98.21;98011.53;5061778;28;20049;-70
2022/09/24 07:58:36;;;;;;;0.10;0.10;;;;;;;8.28;98.28;98009.63;5061659;28;20143;-70
2022/09/24 08:01:02;;;;;;;0.10;0.10;;;;;;;8.25;98.38;98002.03;5064220;28;20131;-69
2022/09/24 08:03:28;;;;;;;0.10;0.10;;;;;;;8.23;98.41;98010.53;5058933;28;20212;-69
2022/09/24 08:05:58;;;;;;;0.10;0.10;;;;;;;8.27;98.94;98004.47;5056272;28;20044;-69
2022/09/24 08:08:25;;;;;;;0.10;0.10;;;;;;;8.24;98.97;98005.88;5046037;28;20094;-69
2022/09/24 08:10:51;;;;;;;0.10;0.10;;;;;;;8.27;99.09;98001.75;5038857;28;20424;-69
2022/09/24 08:13:18;;;;;;;0.10;0.10;;;;;;;8.25;99.06;97995.81;5051461;28;20052;-69
2022/09/24 08:15:44;;;;;;;0.10;0.10;;;;;;;8.22;99.29;97997.19;5036095;28;20071;-68
2022/09/24 08:18:11;;;;;;;0.10;0.10;;;;;;;8.16;98.95;97987.53;5058222;28;20611;-68
2022/09/24 08:20:38;;;;;;;0.20;0.10;;;;;;;8.17;98.94;97991.88;5039562;28;20044;-69
2022/09/24 08:23:06;;;;;;;0.10;0.10;;;;;;;8.17;99.10;97989.16;5062731;28;20149;-69
2022/09/24 08:25:32;;;;;;;0.40;0.10;;;;;;;8.19;99.30;97990.44;5056927;28;20071;-69
2022/09/24 08:28:00;;;;;;;0.13;0.10;;;;;;;8.22;99.44;97989.84;5040876;28;20512;-68
2022/09/24 08:30:29;;;;;;;0.15;0.15;;;;;;;8.25;99.45;97984.91;5048082;28;20045;-69
2022/09/24 08:32:56;;;;;;;0.10;0.10;;;;;;;8.21;99.44;97993.69;5040919;28;20041;-69
2022/09/24 08:35:22;;;;;;;0.10;0.10;;;;;;;8.17;99.49;97981.78;5051849;28;20049;-68
2022/09/24 08:37:48;;;;;;;0.10;0.10;;;;;;;8.21;99.66;97979.25;5051480;28;20051;-69
2022/09/24 08:40:18;;;;;;;0.10;0.10;;;;;;;8.20;100.00;97986.63;5031222;28;20445;-69
2022/09/24 08:42:50;;;;;;;0.10;0.10;;;;;;;8.25;100.00;97974.81;5024297;28;20057;-69
2022/09/24 08:48:12;;;;;;;0.10;0.10;;;;;;;8.28;100.00;97967.97;5049858;28;20045;-68
2022/09/24 08:50:48;;;;;;;0.10;0.10;;;;;;;8.29;99.82;97972.28;5048733;28;20094;-69
2022/09/24 08:53:19;;;;;;;0.10;0.10;;;;;;;8.31;99.85;97973.63;5046390;28;20055;-69
2022/09/24 08:55:47;;;;;;;0.10;0.10;;;;;;;8.29;99.72;97962.22;5062288;28;20110;-69
2022/09/24 08:58:36;;;;;;;0.35;0.10;;;;;;;8.33;99.27;97963.22;5031446;28;20122;-69
2022/09/24 09:01:12;;;;;;;0.10;0.10;;;;;;;8.36;99.25;97964.53;5014328;28;20057;-69
2022/09/24 09:03:44;;;;;;;0.10;0.10;;;;;;;8.31;98.91;97962.72;5016112;28;20114;-69
2022/09/24 09:06:25;;;;;;;0.10;0.10;;;;;;;8.35;98.57;97962.91;5032939;28;20045;-69
2022/09/24 09:08:57;;;;;;;0.10;0.10;;;;;;;8.41;98.26;97967.13;5035907;28;20449;-69
2022/09/24 09:11:29;;;;;;;0.10;0.10;;;;;;;8.46;98.19;97966.22;5034921;28;20063;-69
2022/09/24 09:13:58;;;;;;;0.30;0.25;;;;;;;8.58;98.06;97969.25;5042380;28;20056;-69
2022/09/24 09:16:28;;;;;;;0.10;0.10;;;;;;;8.65;97.77;97966.91;5028377;28;20402;-70
2022/09/24 09:19:03;;;;;;;0.10;0.10;;;;;;;8.60;97.65;97953.41;5032007;28;20040;-69
2022/09/24 09:21:40;;;;;;;0.10;0.10;;;;;;;8.63;97.34;97947.34;5042028;28;20830;-70
2022/09/24 09:24:15;;;;;;;0.20;0.20;;;;;;;8.61;96.97;97952.31;5035130;28;20048;-70
2022/09/24 09:26:42;;;;;;;0.10;0.10;;;;;;;8.67;96.77;97952.19;5041742;28;20042;-70
2022/09/24 09:29:09;;;;;;;0.10;0.10;;;;;;;8.65;96.52;97956.00;5038044;28;20053;-70
2022/09/24 09:31:44;;;;;;;0.10;0.10;;;;;;;8.67;96.08;97942.09;5044231;28;20045;-70
2022/09/24 09:34:28;;;;;;;0.10;0.10;;;;;;;8.69;95.46;97942.59;5042483;28;20048;-70
2022/09/24 09:37:07;;;;;;;0.15;0.13;;;;;;;8.71;95.33;97939.53;5023016;28;20053;-71
2022/09/24 09:39:42;;;;;;;0.10;0.10;;;;;;;8.78;95.19;97943.44;5040137;28;20126;-70
2022/09/24 09:42:27;;;;;;;0.10;0.10;;;;;;;8.76;94.95;97932.06;5038681;28;20102;-70
2022/09/24 09:44:53;;;;;;;0.10;0.10;;;;;;;8.78;94.80;97934.50;5042580;28;20179;-70
2022/09/24 09:47:31;;;;;;;0.10;0.10;;;;;;;8.76;94.59;97934.00;5040717;28;20098;-70
2022/09/24 09:50:11;;;;;;;0.10;0.10;;;;;;;8.73;94.78;97935.41;5047599;28;20053;-71
2022/09/24 09:52:38;;;;;;;0.10;0.10;;;;;;;8.69;94.42;97933.59;5030936;28;20048;-70
2022/09/24 09:55:07;;;;;;;0.10;0.10;;;;;;;8.70;94.54;97927.03;5033751;28;20063;-70
2022/09/24 09:57:37;;;;;;;0.10;0.10;;;;;;;8.75;94.50;97933.19;5039138;28;20048;-70
2022/09/24 10:00:04;;;;;;;0.10;0.10;;;;;;;8.79;94.80;97928.72;5039766;28;20056;-69
2022/09/24 10:02:42;;;;;;;0.10;0.10;;;;;;;8.81;94.92;97928.41;5047985;28;20055;-70
2022/09/24 10:05:27;;;;;;;0.10;0.10;;;;;;;8.78;94.68;97921.66;5062728;28;20535;-70
2022/09/24 10:07:53;;;;;;;0.10;0.10;;;;;;;8.79;94.53;97925.19;5040206;28;20045;-70
2022/09/24 10:10:25;;;;;;;0.10;0.10;;;;;;;8.78;94.70;97920.88;5027878;28;20108;-71
2022/09/24 10:12:52;;;;;;;0.10;0.10;;;;;;;8.74;94.71;97923.38;5024133;28;20394;-71
2022/09/24 10:15:19;;;;;;;;;;;;;;;8.77;94.81;97924.69;5041133;28;20098;-71
2022/09/24 10:17:47;;;;;;;0.10;0.10;;;;;;;8.76;94.52;97928.53;5043439;28;19936;-71
2022/09/24 10:20:18;;;;;;;0.10;0.10;;;;;;;8.79;94.25;97920.53;5020603;28;20053;-70
2022/09/24 10:22:49;;;;;;;0.10;0.10;;;;;;;8.79;94.17;97922.47;5041619;28;20045;-71
2022/09/24 10:25:18;;;;;;;0.10;0.10;;;;;;;8.77;94.37;97927.44;5047938;28;20045;-70
2022/09/24 10:27:45;;;;;;;0.10;0.10;;;;;;;8.73;94.66;97912.78;5030638;28;20048;-71
2022/09/24 10:30:32;;;;;;;0.10;0.10;;;;;;;8.76;94.65;97923.88;5028043;28;20053;-70
2022/09/24 10:33:01;;;;;;;0.10;0.10;;;;;;;8.75;94.55;97921.47;5038980;28;20631;-70
2022/09/24 10:35:30;;;;;;;0.10;0.10;;;;;;;8.64;94.64;97915.44;5043899;28;20561;-70
2022/09/24 10:37:58;;;;;;;0.10;0.10;;;;;;;8.72;94.71;97925.63;5045745;28;20053;-71
2022/09/24 10:40:27;;;;;;;0.10;0.10;;;;;;;8.73;94.72;97918.25;5019305;28;20044;-71
2022/09/24 10:42:58;;;;;;;0.10;0.10;;;;;;;8.75;94.67;97916.03;5049433;28;20451;-71
2022/09/24 10:45:37;;;;;;;0.10;0.10;;;;;;;8.70;94.49;97918.84;5040489;28;20591;-71
2022/09/24 10:48:10;;;;;;;0.10;0.10;;;;;;;8.71;94.49;97921.28;5047481;28;20504;-71
2022/09/24 10:50:45;;;;;;;0.10;0.10;;;;;;;8.74;94.71;97920.66;5043161;28;20064;-70
2022/09/24 10:53:17;;;;;;;0.10;0.10;;;;;;;8.79;94.70;97922.47;5055504;28;20136;-70
2022/09/24 10:55:57;;;;;;;0.10;0.10;;;;;;;8.82;95.35;97918.31;5061463;28;20062;-70
2022/09/24 10:58:40;;;;;;;0.10;0.10;;;;;;;8.83;95.59;97918.00;5062236;28;20044;-70
2022/09/24 11:01:15;;;;;;;0.10;0.10;;;;;;;8.88;95.87;97906.97;5064861;28;20289;-70
2022/09/24 11:03:59;;;;;;;0.10;0.10;;;;;;;8.87;96.11;97904.56;5064358;28;20048;-70
2022/09/24 11:06:43;;;;;;;0.10;0.10;;;;;;;8.85;96.56;97910.31;5065013;28;20076;-70
2022/09/24 11:09:20;;;;;;;0.10;0.10;;;;;;;8.83;96.36;97906.31;5044812;28;20143;-70
2022/09/24 11:11:55;;;;;;;0.10;0.10;;;;;;;8.77;96.57;97909.13;5045428;28;20499;-70
2022/09/24 11:14:39;;;;;;;0.10;0.10;;;;;;;8.77;96.29;97903.69;5045525;28;20049;-70
2022/09/24 11:17:28;;;;;;;0.10;0.10;;;;;;;8.84;96.46;97900.53;5045205;28;20052;-70
2022/09/24 11:20:11;;;;;;;0.10;0.10;;;;;;;8.97;96.49;97898.84;5051106;28;20048;-70
2022/09/24 11:22:55;;;;;;;0.10;0.10;;;;;;;9.01;96.20;97902.59;5052628;28;20044;-70
2022/09/24 11:25:31;;;;;;;0.10;0.10;;;;;;;9.02;95.99;97904.19;5051074;28;20052;-70
2022/09/24 11:28:12;;;;;;;0.10;0.10;;;;;;;9.02;95.69;97896.03;5037477;28;20049;-70
2022/09/24 11:30:47;;;;;;;0.10;0.10;;;;;;;8.98;95.31;97889.59;5024299;28;20049;-70
2022/09/24 11:33:28;;;;;;;0.10;0.10;;;;;;;8.99;95.47;97893.91;5005732;28;20041;-71
2022/09/24 11:36:12;;;;;;;0.10;0.10;;;;;;;8.98;95.54;97892.31;5055739;28;20044;-70
2022/09/24 11:38:58;;;;;;;0.10;0.10;;;;;;;8.93;95.34;97885.06;5045874;28;20067;-70
2022/09/24 11:41:36;;;;;;;0.10;0.10;;;;;;;8.93;95.37;97887.78;5048110;28;20040;-70
2022/09/24 11:44:32;;;;;;;0.13;0.13;;;;;;;8.92;95.64;97880.72;5044303;28;20045;-70
2022/09/24 11:47:13;;;;;;;0.20;0.10;;;;;;;8.87;95.84;97853.59;5045073;28;20045;-70
2022/09/24 11:49:51;;;;;;;0.10;0.10;;;;;;;8.98;96.25;97886.03;5046474;28;20049;-70
2022/09/24 11:52:28;;;;;;;0.10;0.10;;;;;;;8.96;96.02;97880.88;5048835;28;20131;-70
2022/09/24 11:55:04;;;;;;;0.10;0.10;;;;;;;8.95;96.02;97876.56;5022281;28;20046;-71
2022/09/24 11:57:35;;;;;;;0.10;0.10;;;;;;;8.91;95.82;97881.03;5045021;28;20040;-70
2022/09/24 12:00:07;;;;;;;0.10;0.10;;;;;;;8.82;96.00;97880.97;5026604;28;20123;-70
2022/09/24 12:02:38;;;;;;;0.10;0.10;;;;;;;8.77;96.04;97881.09;5024870;28;20042;-70